Time;durP1;ratioP1;P1;durP2;ratioP2;P2;SDS_P1;SDS_P2;PMS_P1;PMS_P2;Temp;Humidity;BMP_temperature;BMP_pressure;BME280_temperature;BME280_humidity;BME280_pressure;Samples;Min_cycle;Max_cycle;Signal;HPM_P1;HPM_P2
2024/02/02 00:02:23;;;;;;;;;;;;;;;3.06;100.00;102621.16;5112647;27;19958;-75
2024/02/02 00:04:48;;;;;;;;;;;;;;;3.07;100.00;102609.56;5110758;27;20482;-76
2024/02/02 00:07:13;;;;;;;;;;;;;;;3.08;100.00;102613.94;5111713;27;19915;-76
2024/02/02 00:09:39;;;;;;;;;;;;;;;3.09;100.00;102601.50;5112220;27;19927;-75
2024/02/02 00:12:06;;;;;;;;;;;;;;;3.08;100.00;102583.81;5110305;27;19930;-75
2024/02/02 00:14:31;;;;;;;;;;;;;;;3.14;100.00;102572.75;5107868;27;19916;-76
2024/02/02 00:16:58;;;;;;;;;;;;;;;3.14;100.00;102573.63;5109714;27;19920;-76
2024/02/02 00:19:23;;;;;;;;;;;;;;;2.97;100.00;102590.72;5111521;27;19930;-76
2024/02/02 00:21:48;;;;;;;;;;;;;;;2.92;100.00;102595.47;5117927;27;20321;-76
2024/02/02 00:24:13;;;;;;;;;;;;;;;3.06;100.00;102586.56;5118117;27;19951;-75
2024/02/02 00:26:39;;;;;;;;;;;;;;;3.06;100.00;102580.41;5111673;28;19920;-75
2024/02/02 00:29:07;;;;;;;;;;;;;;;3.09;100.00;102573.06;5118056;27;19915;-75
2024/02/02 00:31:32;;;;;;;;;;;;;;;3.01;100.00;102567.41;5113749;27;20031;-75
2024/02/02 00:33:57;;;;;;;;;;;;;;;3.00;100.00;102571.88;5108696;28;19966;-75
2024/02/02 00:36:23;;;;;;;;;;;;;;;2.99;100.00;102564.03;5093827;28;19924;-75
2024/02/02 00:38:48;;;;;;;;;;;;;;;2.95;100.00;102567.84;5111351;27;20015;-76
2024/02/02 00:41:13;;;;;;;;;;;;;;;2.96;100.00;102561.56;5118498;27;19970;-75
2024/02/02 00:43:38;;;;;;;;;;;;;;;2.88;100.00;102562.94;5115089;27;19927;-75
2024/02/02 00:46:04;;;;;;;;;;;;;;;2.93;100.00;102559.09;5123738;27;20260;-75
2024/02/02 00:48:29;;;;;;;;;;;;;;;2.95;100.00;102562.50;5109154;28;19931;-74
2024/02/02 00:50:54;;;;;;;;;;;;;;;2.85;100.00;102565.78;5117338;27;20246;-74
2024/02/02 00:53:19;;;;;;;;;;;;;;;2.80;100.00;102551.97;5119012;27;19971;-74
2024/02/02 00:55:45;;;;;;;;;;;;;;;2.95;100.00;102567.84;5112423;27;19927;-77
2024/02/02 00:58:10;;;;;;;;;;;;;;;2.87;100.00;102561.22;5120785;28;19923;-75
2024/02/02 01:00:35;;;;;;;;;;;;;;;2.97;100.00;102550.81;5112787;28;19924;-75
2024/02/02 01:03:00;;;;;;;;;;;;;;;2.98;100.00;102541.88;5119309;28;19972;-76
2024/02/02 01:05:26;;;;;;;;;;;;;;;3.00;100.00;102547.09;5111745;28;19920;-76
2024/02/02 01:07:51;;;;;;;;;;;;;;;2.92;100.00;102547.59;5117491;28;20018;-76
2024/02/02 01:10:17;;;;;;;;;;;;;;;2.88;100.00;102544.31;5110821;28;19930;-77
2024/02/02 01:12:45;;;;;;;;;;;;;;;2.82;100.00;102558.03;5117233;28;19928;-77
2024/02/02 01:15:10;;;;;;;;;;;;;;;2.80;100.00;102581.22;5118633;28;19924;-77
2024/02/02 01:17:36;;;;;;;;;;;;;;;2.78;100.00;102579.59;5111162;28;20015;-77
2024/02/02 01:20:03;;;;;;;;;;;;;;;2.82;100.00;102579.31;5120775;28;20276;-77
2024/02/02 01:22:29;;;;;;;;;;;;;;;2.82;100.00;102563.34;5114662;28;20313;-77
2024/02/02 01:24:54;;;;;;;;;;;;;;;2.87;100.00;102560.38;5114108;28;19999;-77
2024/02/02 01:27:19;;;;;;;;;;;;;;;3.02;100.00;102537.19;5117134;28;19920;-77
2024/02/02 01:29:44;;;;;;;;;;;;;;;3.05;100.00;102531.66;5113719;28;19955;-76
2024/02/02 01:32:09;;;;;;;;;;;;;;;3.06;100.00;102528.03;5114609;28;19958;-77
2024/02/02 01:34:35;;;;;;;;;;;;;;;3.04;100.00;102527.28;5106352;28;19919;-77
2024/02/02 01:37:00;;;;;;;;;;;;;;;3.02;100.00;102535.38;5113015;28;19972;-77
2024/02/02 01:39:25;;;;;;;;;;;;;;;3.02;100.00;102527.41;5106699;28;19927;-78
2024/02/02 01:41:51;;;;;;;;;;;;;;;2.92;100.00;102525.47;5117969;28;20260;-78
2024/02/02 01:44:16;;;;;;;;;;;;;;;2.98;100.00;102506.44;5110917;28;19940;-77
2024/02/02 01:46:45;;;;;;;;;;;;;;;2.98;100.00;102503.78;5117745;28;19966;-77
2024/02/02 01:49:10;;;;;;;;;;;;;;;3.02;100.00;102499.94;5115393;28;20380;-77
2024/02/02 01:51:35;;;;;;;;;;;;;;;2.99;100.00;102502.84;5113055;28;19919;-77
2024/02/02 01:54:09;;;;;;;;;;;;;;;3.02;100.00;102494.59;5123740;28;19923;-78
2024/02/02 01:56:35;;;;;;;;;;;;;;;2.90;100.00;102503.44;5109888;28;19920;-78
2024/02/02 01:59:03;;;;;;;;;;;;;;;2.97;100.00;102502.09;5111517;28;19980;-77
2024/02/02 02:01:28;;;;;;;;;;;;;;;2.93;100.00;102514.72;5119745;27;19922;-78
2024/02/02 02:03:53;;;;;;;;;;;;;;;3.01;100.00;102524.84;5093207;27;20280;-78
2024/02/02 02:06:19;;;;;;;;;;;;;;;2.91;100.00;102529.97;5123902;27;19915;-78
2024/02/02 02:08:44;;;;;;;;;;;;;;;2.82;100.00;102527.91;5122830;27;19923;-78
2024/02/02 02:11:09;;;;;;;;;;;;;;;2.95;100.00;102525.28;5096814;27;19919;-78
2024/02/02 02:13:34;;;;;;;;;;;;;;;3.05;100.00;102510.38;5106913;27;19916;-78
2024/02/02 02:15:59;;;;;;;;;;;;;;;3.09;100.00;102511.03;5091627;28;20617;-76
2024/02/02 02:18:25;;;;;;;;;;;;;;;3.00;100.00;102518.69;5144814;22;19977;-77
2024/02/02 02:20:50;;;;;;;;;;;;;;;2.95;100.00;102525.28;5127587;27;19952;-77
2024/02/02 02:23:16;;;;;;;;;;;;;;;3.05;100.00;102514.84;5099274;27;19951;-77
2024/02/02 02:25:42;;;;;;;;;;;;;;;3.15;100.00;102511.44;5127110;27;20026;-77
2024/02/02 02:28:07;;;;;;;;;;;;;;;3.10;100.00;102518.03;5125995;27;19958;-77
2024/02/02 02:30:32;;;;;;;;;;;;;;;3.22;100.00;102521.66;5122712;27;19943;-77
2024/02/02 02:32:57;;;;;;;;;;;;;;;3.21;100.00;102520.81;5118334;27;19919;-78
2024/02/02 02:35:23;;;;;;;;;;;;;;;3.03;100.00;102514.94;5124923;27;19920;-78
2024/02/02 02:37:48;;;;;;;;;;;;;;;3.13;100.00;102508.03;5129877;27;20049;-78
2024/02/02 02:40:13;;;;;;;;;;;;;;;3.29;100.00;102491.00;5119884;27;19939;-78
2024/02/02 02:42:38;;;;;;;;;;;;;;;3.37;100.00;102472.66;5123998;27;19926;-78
2024/02/02 02:45:04;;;;;;;;;;;;;;;3.33;100.00;102460.53;5132746;27;19923;-78
2024/02/02 02:47:29;;;;;;;;;;;;;;;3.40;100.00;102464.44;5122752;27;19923;-78
2024/02/02 02:49:54;;;;;;;;;;;;;;;3.37;100.00;102454.00;5124793;27;20018;-78
2024/02/02 02:52:19;;;;;;;;;;;;;;;3.46;100.00;102448.03;5119446;27;19926;-78
2024/02/02 02:54:45;;;;;;;;;;;;;;;3.45;100.00;102433.03;5124852;27;19930;-78
2024/02/02 02:57:10;;;;;;;;;;;;;;;3.45;100.00;102427.72;5121878;27;19973;-77
2024/02/02 02:59:35;;;;;;;;;;;;;;;3.51;100.00;102423.75;5127325;27;19926;-78
2024/02/02 03:02:00;;;;;;;;;;;;;;;3.42;100.00;102414.63;5122482;27;20408;-78
2024/02/02 03:04:26;;;;;;;;;;;;;;;3.42;100.00;102414.63;5123760;27;19928;-78
2024/02/02 03:06:51;;;;;;;;;;;;;;;3.52;100.00;102408.63;5124711;27;19920;-77
2024/02/02 03:09:16;;;;;;;;;;;;;;;3.42;100.00;102406.63;5119696;27;19964;-77
2024/02/02 03:11:41;;;;;;;;;;;;;;;3.46;100.00;102408.13;5130937;27;19959;-77
2024/02/02 03:14:07;;;;;;;;;;;;;;;3.46;100.00;102402.78;5125104;27;20014;-77
2024/02/02 03:16:32;;;;;;;;;;;;;;;3.53;100.00;102397.03;5115399;27;19927;-77
2024/02/02 03:18:57;;;;;;;;;;;;;;;3.58;100.00;102394.84;5116388;27;20391;-75
2024/02/02 03:21:22;;;;;;;;;;;;;;;3.56;100.00;102407.44;5123793;27;20294;-77
2024/02/02 03:23:48;;;;;;;;;;;;;;;3.59;100.00;102415.19;5124852;27;19942;-77
2024/02/02 03:26:13;;;;;;;;;;;;;;;3.55;100.00;102419.91;5122426;27;19973;-76
2024/02/02 03:28:41;;;;;;;;;;;;;;;3.52;100.00;102413.97;5128824;27;20001;-76
2024/02/02 03:31:06;;;;;;;;;;;;;;;3.46;100.00;102415.22;5127942;27;19964;-77
2024/02/02 03:33:32;;;;;;;;;;;;;;;3.54;100.00;102414.66;5128483;27;20013;-76
2024/02/02 03:35:57;;;;;;;;;;;;;;;3.51;100.00;102417.59;5128477;27;19919;-77
2024/02/02 03:38:22;;;;;;;;;;;;;;;3.54;100.00;102415.53;5124672;27;19920;-77
2024/02/02 03:40:48;;;;;;;;;;;;;;;3.51;100.00;102410.44;5124020;27;20286;-76
2024/02/02 03:43:13;;;;;;;;;;;;;;;3.56;100.00;102412.75;5132304;27;20034;-75
2024/02/02 03:45:38;;;;;;;;;;;;;;;3.57;100.00;102407.34;5118253;27;19923;-76
2024/02/02 03:48:03;;;;;;;;;;;;;;;3.64;100.00;102405.06;5121629;27;20401;-76
2024/02/02 03:50:29;;;;;;;;;;;;;;;3.64;100.00;102415.72;5114508;27;20287;-77
2024/02/02 03:52:54;;;;;;;;;;;;;;;3.67;100.00;102417.28;5127412;27;20450;-76
2024/02/02 03:55:20;;;;;;;;;;;;;;;3.69;100.00;102413.56;5131966;27;19954;-75
2024/02/02 03:57:45;;;;;;;;;;;;;;;3.73;100.00;102415.03;5139997;27;20006;-76
2024/02/02 04:00:11;;;;;;;;;;;;;;;3.58;100.00;102421.47;5117247;27;20673;-76
2024/02/02 04:02:36;;;;;;;;;;;;;;;3.65;100.00;102412.09;5130772;27;19922;-76
2024/02/02 04:05:01;;;;;;;;;;;;;;;3.71;100.00;102411.63;5123080;27;19971;-76
2024/02/02 04:07:27;;;;;;;;;;;;;;;3.64;100.00;102410.41;5123945;27;19939;-76
2024/02/02 04:09:52;;;;;;;;;;;;;;;3.75;100.00;102402.44;5124971;27;20406;-76
2024/02/02 04:12:17;;;;;;;;;;;;;;;3.76;100.00;102411.31;5124688;27;19920;-77
2024/02/02 04:14:43;;;;;;;;;;;;;;;3.75;100.00;102399.78;5136607;27;19920;-76
2024/02/02 04:17:08;;;;;;;;;;;;;;;3.73;100.00;102404.38;5128745;27;19965;-76
2024/02/02 04:19:33;;;;;;;;;;;;;;;3.76;100.00;102393.50;5136068;22;22882;-76
2024/02/02 04:21:58;;;;;;;;;;;;;;;3.78;100.00;102402.22;5090218;28;20014;-76
2024/02/02 04:24:23;;;;;;;;;;;;;;;3.83;100.00;102398.38;5087027;28;19959;-77
2024/02/02 04:26:49;;;;;;;;;;;;;;;3.84;100.00;102398.25;5085278;28;19920;-77
2024/02/02 04:29:14;;;;;;;;;;;;;;;3.79;100.00;102381.78;5089861;28;19928;-77
2024/02/02 04:31:42;;;;;;;;;;;;;;;3.88;100.00;102386.41;5090686;28;19920;-78
2024/02/02 04:34:07;;;;;;;;;;;;;;;3.90;100.00;102394.28;5089765;28;20316;-78
2024/02/02 04:36:32;;;;;;;;;;;;;;;3.91;100.00;102387.97;5091421;28;20383;-77
2024/02/02 04:38:58;;;;;;;;;;;;;;;3.85;100.00;102396.47;5089031;28;19939;-77
2024/02/02 04:41:23;;;;;;;;;;;;;;;3.93;100.00;102386.94;5089791;28;19999;-77
2024/02/02 04:43:48;;;;;;;;;;;;;;;3.91;100.00;102374.66;5091249;28;19971;-78
2024/02/02 04:46:13;;;;;;;;;;;;;;;3.92;100.00;102369.25;5088834;28;19954;-77
2024/02/02 04:48:39;;;;;;;;;;;;;;;3.84;100.00;102374.28;5090499;28;20375;-77
2024/02/02 04:51:05;;;;;;;;;;;;;;;3.73;100.00;102372.41;5088715;28;20336;-77
2024/02/02 04:53:30;;;;;;;;;;;;;;;3.93;100.00;102356.75;5089187;28;19963;-77
2024/02/02 04:55:55;;;;;;;;;;;;;;;3.84;100.00;102363.63;5093973;28;19969;-77
2024/02/02 04:58:23;;;;;;;;;;;;;;;3.92;100.00;102355.06;5090703;28;20283;-77
2024/02/02 05:00:49;;;;;;;;;;;;;;;3.88;100.00;102349.09;5090038;28;19963;-77
2024/02/02 05:03:14;;;;;;;;;;;;;;;3.85;100.00;102359.16;5089248;28;19963;-78
2024/02/02 05:05:39;;;;;;;;;;;;;;;3.93;100.00;102340.75;5091394;28;19934;-77
2024/02/02 05:08:05;;;;;;;;;;;;;;;3.98;100.00;102346.59;5088936;28;19977;-77
2024/02/02 05:10:30;;;;;;;;;;;;;;;3.98;100.00;102343.94;5089665;28;19920;-78
2024/02/02 05:12:55;;;;;;;;;;;;;;;3.97;100.00;102326.25;5090244;28;19926;-77
2024/02/02 05:15:20;;;;;;;;;;;;;;;3.96;100.00;102335.22;5089761;28;19920;-77
2024/02/02 05:17:46;;;;;;;;;;;;;;;3.99;100.00;102328.78;5089675;28;20430;-75
2024/02/02 05:20:11;;;;;;;;;;;;;;;3.92;100.00;102317.75;5082857;28;19921;-76
2024/02/02 05:22:37;;;;;;;;;;;;;;;3.95;100.00;102322.84;5068141;28;19951;-76
2024/02/02 05:25:11;;;;;;;;;;;;;;;3.93;100.00;102314.13;5069630;28;19928;-76
2024/02/02 05:27:36;;;;;;;;;;;;;;;3.96;100.00;102305.91;5068032;28;19968;-76
2024/02/02 05:30:02;;;;;;;;;;;;;;;3.96;100.00;102303.22;5069656;28;19962;-76
2024/02/02 05:32:27;;;;;;;;;;;;;;;3.88;100.00;102316.31;5069235;28;20025;-75
2024/02/02 05:34:52;;;;;;;;;;;;;;;3.92;100.00;102310.63;5074587;28;19956;-76
2024/02/02 05:37:18;;;;;;;;;;;;;;;3.92;100.00;102310.63;5073258;28;19920;-76
2024/02/02 05:39:43;;;;;;;;;;;;;;;3.88;100.00;102313.63;5072754;28;19920;-76
2024/02/02 05:42:13;;;;;;;;;;;;;;;3.87;100.00;102311.94;5074904;28;19920;-77
2024/02/02 05:44:38;;;;;;;;;;;;;;;3.86;100.00;102307.56;5070067;28;19924;-77
2024/02/02 05:47:04;;;;;;;;;;;;;;;3.82;100.00;102293.63;5068314;28;19971;-76
2024/02/02 05:49:29;;;;;;;;;;;;;;;3.81;100.00;102283.09;5073702;28;19931;-77
2024/02/02 05:51:55;;;;;;;;;;;;;;;3.74;100.00;102288.88;5064937;28;19928;-77
2024/02/02 05:54:23;;;;;;;;;;;;;;;3.83;100.00;102291.81;5074083;28;19963;-77
2024/02/02 05:56:48;;;;;;;;;;;;;;;3.81;100.00;102285.75;5073149;28;20327;-77
2024/02/02 05:59:13;;;;;;;;;;;;;;;3.82;100.00;102282.13;5073920;28;20400;-77
2024/02/02 06:01:38;;;;;;;;;;;;;;;3.79;100.00;102292.06;5072990;28;19920;-77
2024/02/02 06:04:04;;;;;;;;;;;;;;;3.71;100.00;102310.41;5072960;28;19928;-77
2024/02/02 06:06:29;;;;;;;;;;;;;;;3.72;100.00;102304.13;5070605;28;19924;-77
2024/02/02 06:08:54;;;;;;;;;;;;;;;3.76;100.00;102308.25;5072606;28;19928;-77
2024/02/02 06:11:19;;;;;;;;;;;;;;;3.77;100.00;102312.63;5073070;28;19920;-76
2024/02/02 06:13:45;;;;;;;;;;;;;;;3.71;100.00;102306.91;5073570;28;20007;-77
2024/02/02 06:16:10;;;;;;;;;;;;;;;3.71;100.00;102310.41;5072592;28;19924;-77
2024/02/02 06:18:35;;;;;;;;;;;;;;;3.68;100.00;102301.81;5073229;28;19943;-77
2024/02/02 06:21:03;;;;;;;;;;;;;;;3.59;100.00;102292.69;5087606;28;19946;-77
2024/02/02 06:23:28;;;;;;;;;;;;;;;3.45;100.00;102293.72;5092387;28;20313;-77
2024/02/02 06:25:56;;;;;;;;;;;;;;;3.56;100.00;102298.25;5105327;22;19976;-77
2024/02/02 06:28:22;;;;;;;;;;;;;;;3.58;100.00;102301.66;5128362;27;19924;-78
2024/02/02 06:30:49;;;;;;;;;;;;;;;3.56;100.00;102306.25;5126438;27;20434;-77
2024/02/02 06:33:16;;;;;;;;;;;;;;;3.48;100.00;102305.03;5125049;27;20551;-78
2024/02/02 06:35:43;;;;;;;;;;;;;;;3.44;100.00;102311.53;5128119;27;19930;-78
2024/02/02 06:38:09;;;;;;;;;;;;;;;3.45;100.00;102323.00;5127326;27;20002;-78
2024/02/02 06:40:34;;;;;;;;;;;;;;;3.39;100.00;102321.66;5132951;27;20015;-77
2024/02/02 06:42:59;;;;;;;;;;;;;;;3.38;100.00;102314.63;5127016;27;19968;-78
2024/02/02 06:45:25;;;;;;;;;;;;;;;3.42;100.00;102325.94;5115213;27;20298;-77
2024/02/02 06:47:50;;;;;;;;;;;;;;;3.41;100.00;102322.41;5132334;27;20335;-77
2024/02/02 06:50:15;;;;;;;;;;;;;;;3.44;100.00;102322.19;5131099;27;20524;-77
2024/02/02 06:52:40;;;;;;;;;;;;;;;3.40;100.00;102317.19;5126987;27;19961;-77
2024/02/02 06:55:06;;;;;;;;;;;;;;;3.36;100.00;102315.72;5129588;27;19919;-77
2024/02/02 06:57:31;;;;;;;;;;;;;;;3.34;100.00;102311.34;5132845;27;19923;-77
2024/02/02 06:59:57;;;;;;;;;;;;;;;3.45;100.00;102310.56;5119134;27;19993;-77
2024/02/02 07:02:24;;;;;;;;;;;;;;;3.43;100.00;102315.16;5132448;27;20378;-77
2024/02/02 07:04:49;;;;;;;;;;;;;;;3.46;100.00;102314.94;5124748;27;19915;-77
2024/02/02 07:07:15;;;;;;;;;;;;;;;3.54;100.00;102308.16;5119770;27;20367;-77
2024/02/02 07:09:40;;;;;;;;;;;;;;;3.51;100.00;102308.41;5124040;27;19949;-77
2024/02/02 07:12:05;;;;;;;;;;;;;;;3.57;100.00;102305.28;5130922;27;20330;-77
2024/02/02 07:15:00;;;;;;;;;;;;;;;3.42;100.00;102308.13;5112206;28;19927;-76
2024/02/02 07:17:32;;;;;;;;;;;;;;;3.51;100.00;102297.78;5105039;27;20294;-77
2024/02/02 07:19:57;;;;;;;;;;;;;;;3.48;100.00;102301.50;5118787;27;19998;-77
2024/02/02 07:22:40;;;;;;;;;;;;;;;3.53;100.00;102294.00;5128513;27;20032;-77
2024/02/02 07:25:12;;;;;;;;;;;;;;;3.53;100.00;102293.19;5120716;27;19919;-78
2024/02/02 07:27:56;;;;;;;;;;;;;;;3.62;100.00;102297.81;5098604;27;19941;-78
2024/02/02 07:30:30;;;;;;;;;;;;;;;3.52;100.00;102287.00;5123951;27;19933;-77
2024/02/02 07:32:56;;;;;;;;;;;;;;;3.48;100.00;102289.03;5128044;27;19963;-76
2024/02/02 07:35:34;;;;;;;;;;;;;;;3.48;100.00;102286.38;5118584;27;20020;-76
2024/02/02 07:38:05;;;;;;;;;;;;;;;3.61;100.00;102283.66;5119264;27;19942;-77
2024/02/02 07:40:30;;;;;;;;;;;;;;;3.61;100.00;102293.44;5119574;27;19928;-75
2024/02/02 07:42:58;;;;;;;;;;;;;;;3.56;100.00;102298.25;5121682;27;19927;-75
2024/02/02 07:45:27;;;;;;;;;;;;;;;3.62;100.00;102303.97;5119520;27;20295;-75
2024/02/02 07:47:53;;;;;;;;;;;;;;;3.62;100.00;102285.31;5117340;27;19927;-76
2024/02/02 07:50:18;;;;;;;;;;;;;;;3.75;100.00;102284.41;5123789;27;19953;-73
2024/02/02 07:52:43;;;;;;;;;;;;;;;3.57;100.00;102300.81;5121255;27;19936;-78
2024/02/02 07:55:09;;;;;;;;;;;;;;;3.54;100.00;102295.72;5127678;27;19926;-77
2024/02/02 07:57:34;;;;;;;;;;;;;;;3.72;100.00;102311.28;5119621;27;19927;-77
2024/02/02 07:59:59;;;;;;;;;;;;;;;3.74;100.00;102310.19;5120088;27;20243;-77
2024/02/02 08:02:24;;;;;;;;;;;;;;;3.73;100.00;102312.97;5119513;27;19927;-77
2024/02/02 08:04:50;;;;;;;;;;;;;;;3.78;100.00;102306.34;5116529;27;19919;-77
2024/02/02 08:07:18;;;;;;;;;;;;;;;3.98;100.00;102305.78;5113154;27;20535;-77
2024/02/02 08:09:43;;;;;;;;;;;;;;;3.69;100.00;102301.72;5122231;27;20376;-77
2024/02/02 08:12:08;;;;;;;;;;;;;;;3.72;100.00;102298.78;5116258;27;19964;-77
2024/02/02 08:14:35;;;;;;;;;;;;;;;3.64;100.00;102299.38;5123845;27;20329;-77
2024/02/02 08:17:00;;;;;;;;;;;;;;;3.74;100.00;102293.38;5122246;27;19920;-78
2024/02/02 08:19:25;;;;;;;;;;;;;;;3.81;100.00;102296.41;5134010;22;19934;-79
2024/02/02 08:21:54;;;;;;;;;;;;;;;3.94;100.00;102295.38;5131025;27;19923;-79
2024/02/02 08:24:19;;;;;;;;;;;;;;;3.85;100.00;102285.41;5139175;27;19920;-78
2024/02/02 08:26:44;;;;;;;;;;;;;;;4.02;100.00;102286.78;5142010;27;19925;-78
2024/02/02 08:29:10;;;;;;;;;;;;;;;4.02;100.00;102292.13;5166114;27;19912;-78
2024/02/02 08:31:35;;;;;;;;;;;;;;;3.87;100.00;102279.97;5150527;27;20100;-78
2024/02/02 08:34:00;;;;;;;;;;;;;;;3.84;100.00;102282.88;5141668;27;19926;-78
2024/02/02 08:36:26;;;;;;;;;;;;;;;3.75;100.00;102290.56;5149557;27;19926;-77
2024/02/02 08:38:51;;;;;;;;;;;;;;;3.87;100.00;102288.81;5143810;27;19941;-78
2024/02/02 08:41:16;;;;;;;;;;;;;;;4.04;100.00;102289.31;5149448;27;20013;-78
2024/02/02 08:43:42;;;;;;;;;;;;;;;4.03;100.00;102283.16;5138469;27;19919;-78
2024/02/02 08:46:12;;;;;;;;;;;;;;;4.00;100.00;102282.53;5139154;27;19965;-79
2024/02/02 08:48:37;;;;;;;;;;;;;;;4.06;100.00;102282.91;5142374;27;19955;-78
2024/02/02 08:51:09;;;;;;;;;;;;;;;4.05;100.00;102291.03;5139601;27;19958;-80
2024/02/02 08:53:34;;;;;;;;;;;;;;;3.96;100.00;102281.91;5127043;27;19964;-78
2024/02/02 08:56:00;;;;;;;;;;;;;;;3.95;100.00;102285.53;5124261;27;19931;-78
2024/02/02 08:58:31;;;;;;;;;;;;;;;3.99;100.00;102286.16;5135696;27;19975;-78
2024/02/02 09:00:57;;;;;;;;;;;;;;;3.85;100.00;102274.75;5140094;27;20010;-78
2024/02/02 09:03:31;;;;;;;;;;;;;;;3.89;100.00;102270.03;5150149;27;19916;-78
2024/02/02 09:05:59;;;;;;;;;;;;;;;4.08;100.00;102258.81;5135058;27;19920;-78
2024/02/02 09:08:24;;;;;;;;;;;;;;;4.16;100.00;102261.72;5147878;27;20294;-78
2024/02/02 09:10:55;;;;;;;;;;;;;;;4.25;100.00;102261.00;5153149;27;19918;-78
2024/02/02 09:13:20;;;;;;;;;;;;;;;4.29;100.00;102274.09;5153658;27;19955;-78
2024/02/02 09:15:46;;;;;;;;;;;;;;;4.42;100.00;102265.97;5151001;27;19919;-79
2024/02/02 09:18:12;;;;;;;;;;;;;;;4.35;100.00;102258.47;5136787;27;20349;-79
2024/02/02 09:20:42;;;;;;;;;;;;;;;4.31;100.00;102264.16;5133768;27;20459;-79
2024/02/02 09:23:07;;;;;;;;;;;;;;;4.40;100.00;102264.28;5133503;27;19923;-77
2024/02/02 09:25:33;;;;;;;;;;;;;;;4.30;100.00;102265.97;5144850;27;19915;-77
2024/02/02 09:27:59;;;;;;;;;;;;;;;4.28;100.00;102265.22;5120571;27;20369;-77
2024/02/02 09:30:24;;;;;;;;;;;;;;;4.53;100.00;102264.16;5137818;27;19958;-79
2024/02/02 09:32:49;;;;;;;;;;;;;;;4.31;100.00;102270.34;5140564;27;20026;-78
2024/02/02 09:35:44;;;;;;;;;;;;;;;4.37;100.00;102269.00;5140359;27;20017;-79
2024/02/02 09:38:09;;;;;;;;;;;;;;;4.40;100.00;102268.75;5118213;27;20034;-77
2024/02/02 09:40:34;;;;;;;;;;;;;;;4.36;100.00;102257.50;5149546;27;20021;-78
2024/02/02 09:43:00;;;;;;;;;;;;;;;4.60;100.00;102251.16;5137244;27;20022;-79
2024/02/02 09:45:30;;;;;;;;;;;;;;;4.62;100.00;102272.41;5146757;27;19946;-79
2024/02/02 09:47:55;;;;;;;;;;;;;;;4.52;100.00;102261.63;5134779;27;19919;-79
2024/02/02 09:50:25;;;;;;;;;;;;;;;4.53;100.00;102268.66;5151764;27;19926;-78
2024/02/02 09:52:53;;;;;;;;;;;;;;;4.53;100.00;102256.13;5145492;22;20022;-79
2024/02/02 09:55:23;;;;;;;;;;;;;;;4.68;100.00;102259.41;5120175;27;19923;-79
2024/02/02 09:57:57;;;;;;;;;;;;;;;4.79;100.00;102271.03;5113845;27;19916;-79
2024/02/02 10:00:31;;;;;;;;;;;;;;;4.64;100.00;102268.63;5117232;27;19955;-78
2024/02/02 10:03:04;;;;;;;;;;;;;;;4.87;100.00;102265.94;5118945;27;19958;-80
2024/02/02 10:05:42;;;;;;;;;;;;;;;4.80;100.00;102270.06;5099711;28;19919;-78
2024/02/02 10:08:26;;;;;;;;;;;;;;;4.87;100.00;102257.94;5104273;27;19955;-77
2024/02/02 10:11:08;;;;;;;;;;;;;;;4.93;100.00;102264.59;5133416;22;19947;-77
2024/02/02 10:13:54;;;;;;;;;;;;;;;4.73;100.00;102266.22;5106448;27;19978;-78
2024/02/02 10:16:41;;;;;;;;;;;;;;;4.84;100.00;102274.19;5119635;22;20420;-77
2024/02/02 10:19:28;;;;;;;;;;;;;;;4.98;100.00;102268.56;5122963;27;19926;-77
2024/02/02 10:22:02;;;;;;;;;;;;;;;5.14;100.00;102249.50;5140598;22;19931;-77
2024/02/02 10:24:27;;;;;;;;;;;;;;;5.05;100.00;102260.06;5126902;27;19930;-78
2024/02/02 10:27:16;;;;;;;;;;;;;;;5.22;100.00;102259.53;5130402;27;20043;-78
2024/02/02 10:30:04;;;;;;;;;;;;;;;5.14;100.00;102252.16;5126195;27;20398;-79
2024/02/02 10:32:34;;;;;;;;;;;;;;;5.23;100.00;102266.56;5126810;27;19920;-78
2024/02/02 10:35:09;;;;;;;;;;;;;;;5.25;100.00;102261.94;5103456;27;19934;-78
2024/02/02 10:37:35;;;;;;;;;;;;;;;5.22;100.00;102243.50;5131797;22;19928;-78
2024/02/02 10:40:21;;;;;;;;;;;;;;;5.36;100.00;102268.22;5122732;27;20372;-78
2024/02/02 10:42:53;;;;;;;;;;;;;;;5.46;100.00;102264.66;5127887;27;19950;-76
2024/02/02 10:45:25;;;;;;;;;;;;;;;5.28;100.00;102248.34;5131802;27;19923;-78
2024/02/02 10:47:53;;;;;;;;;;;;;;;5.44;100.00;102263.94;5113908;27;19919;-78
2024/02/02 10:50:26;;;;;;;;;;;;;;;5.50;100.00;102254.56;5126992;27;20261;-78
2024/02/02 10:53:01;;;;;;;;;;;;;;;5.52;100.00;102254.44;5130638;27;19916;-78
2024/02/02 10:55:32;;;;;;;;;;;;;;;5.44;100.00;102263.09;5128744;27;19926;-78
2024/02/02 10:58:17;;;;;;;;;;;;;;;5.51;100.00;102253.56;5132348;27;19927;-78
2024/02/02 11:00:44;;;;;;;;;;;;;;;5.35;100.00;102254.03;5126861;27;20375;-78
2024/02/02 11:03:19;;;;;;;;;;;;;;;5.38;100.00;102256.44;5130566;27;19976;-78
2024/02/02 11:05:49;;;;;;;;;;;;;;;5.40;100.00;102250.97;5138512;27;19976;-79
2024/02/02 11:08:15;;;;;;;;;;;;;;;5.32;100.00;102241.75;5111055;27;19935;-78
2024/02/02 11:10:40;;;;;;;;;;;;;;;5.42;100.00;102238.34;5117649;27;19958;-76
2024/02/02 11:13:15;;;;;;;;;;;;;;;5.54;100.00;102239.97;5122204;27;19955;-77
2024/02/02 11:15:55;;;;;;;;;;;;;;;5.44;100.00;102247.06;5131578;27;19927;-77
2024/02/02 11:18:23;;;;;;;;;;;;;;;5.52;100.00;102233.06;5129315;27;20149;-76
2024/02/02 11:20:50;;;;;;;;;;;;;;;5.54;100.00;102237.28;5125349;27;19923;-76
2024/02/02 11:23:22;;;;;;;;;;;;;;;5.52;100.00;102212.53;5141308;27;19915;-77
2024/02/02 11:25:57;;;;;;;;;;;;;;;5.49;100.00;102218.13;5115541;27;19926;-76
2024/02/02 11:28:39;;;;;;;;;;;;;;;5.40;100.00;102197.56;5131663;27;20361;-76
2024/02/02 11:31:13;;;;;;;;;;;;;;;5.38;100.00;102202.19;5139798;27;20009;-78
2024/02/02 11:33:51;;;;;;;;;;;;;;;5.38;100.00;102204.84;5134563;27;19916;-75
2024/02/02 11:36:29;;;;;;;;;;;;;;;5.35;100.00;102195.28;5113818;27;20335;-78
2024/02/02 11:39:15;;;;;;;;;;;;;;;5.48;100.00;102205.75;5123695;27;20362;-77
2024/02/02 11:41:44;;;;;;;;;;;;;;;5.47;100.00;102201.41;5132006;27;19923;-77
2024/02/02 11:44:10;;;;;;;;;;;;;;;5.43;100.00;102206.16;5110845;27;19920;-78
2024/02/02 11:46:36;;;;;;;;;;;;;;;5.52;100.00;102204.53;5108600;27;19923;-77
2024/02/02 11:49:05;;;;;;;;;;;;;;;5.42;100.00;102191.09;5130959;27;19919;-77
2024/02/02 11:51:32;;;;;;;;;;;;;;;5.47;100.00;102188.06;5129720;27;20371;-77
2024/02/02 11:54:00;;;;;;;;;;;;;;;5.40;100.00;102184.19;5111655;27;19970;-77
2024/02/02 11:56:35;;;;;;;;;;;;;;;5.43;100.00;102189.28;5107192;27;20402;-76
2024/02/02 11:59:01;;;;;;;;;;;;;;;5.48;100.00;102195.06;5110831;27;20010;-77
2024/02/02 12:01:27;;;;;;;;;;;;;;;5.52;100.00;102193.84;5130588;27;20011;-78
2024/02/02 12:04:09;;;;;;;;;;;;;;;5.42;100.00;102192.94;5129344;27;19979;-77
2024/02/02 12:06:37;;;;;;;;;;;;;;;5.32;100.00;102196.38;5128405;27;20011;-78
2024/02/02 12:09:11;;;;;;;;;;;;;;;5.44;100.00;102199.00;5115025;27;19939;-77
2024/02/02 12:11:40;;;;;;;;;;;;;;;5.57;100.00;102191.63;5129015;27;19920;-78
2024/02/02 12:14:17;;;;;;;;;;;;;;;5.64;100.00;102181.25;5110527;27;19923;-77
2024/02/02 12:17:01;;;;;;;;;;;;;;;5.81;100.00;102189.66;5121520;27;19920;-77
2024/02/02 12:19:35;;;;;;;;;;;;;;;5.70;100.00;102195.91;5128155;27;19923;-78
2024/02/02 12:22:18;;;;;;;;;;;;;;;5.51;100.00;102188.63;5132028;27;20120;-77
2024/02/02 12:24:52;;;;;;;;;;;;;;;5.67;100.00;102185.47;5136290;27;19919;-77
2024/02/02 12:27:23;;;;;;;;;;;;;;;5.81;100.00;102174.47;5133901;27;19927;-77
2024/02/02 12:29:52;;;;;;;;;;;;;;;5.69;100.00;102186.22;5108398;27;20288;-77
2024/02/02 12:32:26;;;;;;;;;;;;;;;5.72;100.00;102181.47;5117300;27;20090;-77
2024/02/02 12:35:04;;;;;;;;;;;;;;;5.82;100.00;102165.50;5123769;27;20077;-77
2024/02/02 12:37:30;;;;;;;;;;;;;;;5.82;100.00;102165.50;5125599;27;20014;-77
2024/02/02 12:39:58;;;;;;;;;;;;;;;5.75;100.00;102162.47;5124403;27;20057;-77